createdAt,value
2023-03-29T00:01:00.130Z,101618.44
2023-03-29T00:03:27.544Z,101616.72
2023-03-29T00:06:03.107Z,101611.59
2023-03-29T00:08:31.517Z,101613.44
2023-03-29T00:10:59.303Z,101602.97
2023-03-29T00:13:27.264Z,101606.38
2023-03-29T00:15:54.913Z,101610.69
2023-03-29T00:18:21.534Z,101603.81
2023-03-29T00:20:57.257Z,101588.06
2023-03-29T00:23:27.343Z,101582.03
2023-03-29T00:25:54.734Z,101569.06
2023-03-29T00:28:21.690Z,101567.38
2023-03-29T00:30:50.513Z,101556.16
2023-03-29T00:33:18.990Z,101565.72
2023-03-29T00:35:46.202Z,101556.97
2023-03-29T00:38:13.066Z,101554.50
2023-03-29T00:40:44.633Z,101553.63
2023-03-29T00:43:12.509Z,101558.06
2023-03-29T00:45:39.077Z,101552.94
2023-03-29T00:48:15.851Z,101548.47
2023-03-29T00:50:52.753Z,101541.25
2023-03-29T00:53:23.857Z,101552.53
2023-03-29T00:56:06.333Z,101534.38
2023-03-29T00:58:49.402Z,101520.56
2023-03-29T01:01:20.748Z,101525.75
2023-03-29T01:03:54.400Z,101524.94
2023-03-29T01:06:24.818Z,101522.31
2023-03-29T01:08:56.656Z,101527.53
2023-03-29T01:11:28.285Z,101522.34
2023-03-29T01:14:34.550Z,101521.63
2023-03-29T01:17:01.154Z,101520.66
2023-03-29T01:19:33.927Z,101517.19
2023-03-29T01:22:22.347Z,101519.78
2023-03-29T01:25:15.100Z,101511.16
2023-03-29T01:28:02.673Z,101512.97
2023-03-29T01:30:37.239Z,101518.28
2023-03-29T01:33:26.709Z,101516.63
2023-03-29T01:35:57.747Z,101514.09
2023-03-29T01:38:36.416Z,101503.75
2023-03-29T01:41:05.386Z,101503.75
2023-03-29T01:43:41.321Z,101502.94
2023-03-29T01:46:15.406Z,101494.22
2023-03-29T01:48:51.604Z,101489.00
2023-03-29T01:51:24.793Z,101490.78
2023-03-29T01:53:59.857Z,101496.13
2023-03-29T01:56:29.126Z,101484.72
2023-03-29T01:59:05.825Z,101477.88
2023-03-29T02:01:40.605Z,101477.91
2023-03-29T02:04:14.023Z,101481.47
2023-03-29T02:06:41.779Z,101478.91
2023-03-29T02:09:09.150Z,101480.75
2023-03-29T02:11:36.805Z,101473.78
2023-03-29T02:14:03.523Z,101478.25
2023-03-29T02:16:36.009Z,101466.94
2023-03-29T02:19:03.303Z,101469.50
2023-03-29T02:21:44.684Z,101465.25
2023-03-29T02:24:15.292Z,101471.41
2023-03-29T02:26:41.770Z,101462.75
2023-03-29T02:29:08.433Z,101450.66
2023-03-29T02:31:40.977Z,101462.00
2023-03-29T02:34:28.202Z,101461.16
2023-03-29T02:36:59.918Z,101455.09
2023-03-29T02:39:29.450Z,101454.31
2023-03-29T02:41:56.737Z,101449.94
2023-03-29T02:44:27.711Z,101444.78
2023-03-29T02:46:58.841Z,101434.31
2023-03-29T02:49:25.394Z,101432.59
2023-03-29T02:51:56.020Z,101424.78
2023-03-29T02:54:27.021Z,101424.81
2023-03-29T02:56:59.116Z,101428.34
2023-03-29T02:59:26.223Z,101428.22
2023-03-29T03:01:53.588Z,101431.75
2023-03-29T03:04:23.085Z,101419.41
2023-03-29T03:06:49.531Z,101426.47
2023-03-29T03:09:15.928Z,101425.72
2023-03-29T03:11:43.364Z,101429.25
2023-03-29T03:14:10.288Z,101421.53
2023-03-29T03:16:37.349Z,101414.56
2023-03-29T03:19:04.345Z,101412.88
2023-03-29T03:21:30.944Z,101408.56
2023-03-29T03:23:57.347Z,101412.09
2023-03-29T03:26:24.938Z,101399.75
2023-03-29T03:28:51.447Z,101398.81
2023-03-29T03:31:19.564Z,101397.06
2023-03-29T03:33:45.991Z,101397.19
2023-03-29T03:36:13.885Z,101392.03
2023-03-29T03:38:41.272Z,101392.91
2023-03-29T03:41:07.731Z,101393.72
2023-03-29T03:43:34.759Z,101403.44
2023-03-29T03:46:02.032Z,101399.94
2023-03-29T03:48:28.527Z,101401.72
2023-03-29T03:50:58.162Z,101396.56
2023-03-29T03:53:27.361Z,101394.88
2023-03-29T03:55:55.960Z,101393.13
2023-03-29T03:58:23.188Z,101399.28
2023-03-29T04:00:50.779Z,101403.59
2023-03-29T04:03:17.679Z,101406.13
2023-03-29T04:05:48.843Z,101392.97
2023-03-29T04:08:15.367Z,101395.66
2023-03-29T04:10:42.355Z,101388.69
2023-03-29T04:13:08.768Z,101390.34
2023-03-29T04:15:38.666Z,101389.47
2023-03-29T04:18:07.308Z,101385.19
2023-03-29T04:20:34.634Z,101389.59
2023-03-29T04:23:01.796Z,101387.81
2023-03-29T04:25:28.555Z,101374.81
2023-03-29T04:27:56.070Z,101375.72
2023-03-29T04:30:22.584Z,101373.03
2023-03-29T04:32:49.062Z,101373.97
2023-03-29T04:35:15.450Z,101366.94
2023-03-29T04:37:44.439Z,101371.16
2023-03-29T04:40:14.923Z,101372.91
2023-03-29T04:42:45.869Z,101369.50
2023-03-29T04:45:14.053Z,101363.44
2023-03-29T04:47:42.032Z,101355.59
2023-03-29T04:50:09.731Z,101366.19
2023-03-29T04:52:36.143Z,101364.50
2023-03-29T04:55:03.926Z,101361.88
2023-03-29T04:57:30.831Z,101366.31
2023-03-29T04:59:57.452Z,101366.34
2023-03-29T05:02:23.992Z,101355.06
2023-03-29T05:04:50.553Z,101353.22
2023-03-29T05:07:19.807Z,101351.44
2023-03-29T05:09:46.348Z,101350.59
2023-03-29T05:12:12.882Z,101350.69
2023-03-29T05:14:39.222Z,101347.28
2023-03-29T05:17:06.466Z,101350.88
2023-03-29T05:19:33.627Z,101358.75
2023-03-29T05:22:00.712Z,101356.97
2023-03-29T05:24:27.252Z,101353.50
2023-03-29T05:26:53.612Z,101359.59
2023-03-29T05:29:20.165Z,101366.66
2023-03-29T05:31:47.095Z,101360.63
2023-03-29T05:34:13.719Z,101371.09
2023-03-29T05:36:40.341Z,101366.78
2023-03-29T05:39:07.289Z,101358.13
2023-03-29T05:41:34.402Z,101354.75
2023-03-29T05:44:00.927Z,101359.06
2023-03-29T05:46:27.383Z,101361.63
2023-03-29T05:48:54.181Z,101348.44
2023-03-29T05:51:24.244Z,101366.84
2023-03-29T05:53:51.542Z,101359.13
2023-03-29T05:56:19.033Z,101365.31
2023-03-29T05:58:54.454Z,101370.53
2023-03-29T06:01:22.553Z,101364.50
2023-03-29T06:03:49.213Z,101368.09
2023-03-29T06:06:16.687Z,101368.91
2023-03-29T06:08:44.291Z,101374.25
2023-03-29T06:11:13.215Z,101367.22
2023-03-29T06:13:40.170Z,101355.91
2023-03-29T06:16:07.274Z,101361.22
2023-03-29T06:18:34.136Z,101358.59
2023-03-29T06:21:02.738Z,101367.47
2023-03-29T06:23:30.683Z,101362.28
2023-03-29T06:25:58.093Z,101369.28
2023-03-29T06:28:24.732Z,101371.97
2023-03-29T06:30:51.415Z,101364.22
2023-03-29T06:33:18.660Z,101370.34
2023-03-29T06:35:47.461Z,101367.78
2023-03-29T06:38:15.213Z,101377.56
2023-03-29T06:40:43.178Z,101376.75
2023-03-29T06:43:09.669Z,101383.84
2023-03-29T06:45:37.844Z,101373.47
2023-03-29T06:48:05.919Z,101377.97
2023-03-29T06:50:32.575Z,101373.59
2023-03-29T06:52:59.079Z,101377.19
2023-03-29T06:55:27.237Z,101377.19
2023-03-29T06:57:54.816Z,101385.13
2023-03-29T07:00:30.588Z,101381.69
2023-03-29T07:02:58.897Z,101377.31
2023-03-29T07:05:29.318Z,101376.50
2023-03-29T07:08:11.762Z,101380.88
2023-03-29T07:10:41.217Z,101391.41
2023-03-29T07:13:11.075Z,101390.63
2023-03-29T07:15:37.702Z,101381.03
2023-03-29T07:18:07.389Z,101380.22
2023-03-29T07:20:33.967Z,101386.44
2023-03-29T07:23:02.396Z,101393.53
2023-03-29T07:25:29.967Z,101393.59
2023-03-29T07:27:58.630Z,101386.66
2023-03-29T07:30:30.944Z,101397.25
2023-03-29T07:33:00.639Z,101390.38
2023-03-29T07:35:27.879Z,101393.00
2023-03-29T07:37:58.400Z,101382.56
2023-03-29T07:40:26.300Z,101386.97
2023-03-29T07:42:55.051Z,101391.50
2023-03-29T07:45:26.787Z,101398.63
2023-03-29T07:47:57.491Z,101397.03
2023-03-29T07:50:24.724Z,101400.66
2023-03-29T07:52:51.473Z,101402.59
2023-03-29T07:55:18.201Z,101398.25
2023-03-29T07:57:44.594Z,101395.72
2023-03-29T08:00:16.011Z,101394.94
2023-03-29T08:02:48.131Z,101396.84
2023-03-29T08:05:23.238Z,101394.22
2023-03-29T08:07:56.194Z,101395.16
2023-03-29T08:10:23.042Z,101397.84
2023-03-29T08:12:50.269Z,101399.63
2023-03-29T08:15:16.973Z,101399.69
2023-03-29T08:17:43.870Z,101393.59
2023-03-29T08:20:13.087Z,101388.38
2023-03-29T08:22:39.474Z,101388.47
2023-03-29T08:25:08.109Z,101394.66
2023-03-29T08:27:37.440Z,101386.84
2023-03-29T08:30:06.691Z,101390.41
2023-03-29T08:32:33.320Z,101384.31
2023-03-29T08:35:01.401Z,101373.88
2023-03-29T08:37:28.121Z,101367.78
2023-03-29T08:39:54.557Z,101366.09
2023-03-29T08:42:55.304Z,101362.75
2023-03-29T08:45:33.826Z,101362.88
2023-03-29T08:48:25.483Z,101367.34
2023-03-29T08:50:58.447Z,101371.75
2023-03-29T08:53:31.816Z,101376.16
2023-03-29T08:56:02.463Z,101391.06
2023-03-29T08:58:32.805Z,101393.69
2023-03-29T09:01:01.803Z,101389.34
2023-03-29T09:03:45.298Z,101390.22
2023-03-29T09:06:12.906Z,101392.06
2023-03-29T09:08:45.539Z,101394.78
2023-03-29T09:11:23.821Z,101393.06
2023-03-29T09:14:21.452Z,101395.78
2023-03-29T09:17:21.538Z,101399.31
2023-03-29T09:20:22.114Z,101394.13
2023-03-29T09:23:02.230Z,101390.66
2023-03-29T09:25:53.417Z,101392.59
2023-03-29T09:28:54.943Z,101395.25
2023-03-29T09:31:26.014Z,101389.13
2023-03-29T09:33:58.598Z,101389.16
2023-03-29T09:36:52.523Z,101404.16
2023-03-29T09:39:21.199Z,101403.25
2023-03-29T09:41:51.044Z,101396.22
2023-03-29T09:44:30.738Z,101396.31
2023-03-29T09:47:06.121Z,101398.09
2023-03-29T09:49:42.760Z,101395.56
2023-03-29T09:52:13.000Z,101386.84
2023-03-29T09:54:39.861Z,101380.72
2023-03-29T09:57:06.856Z,101386.88
2023-03-29T09:59:33.517Z,101392.19
2023-03-29T10:02:12.907Z,101394.00
2023-03-29T10:04:42.460Z,101391.38
2023-03-29T10:07:20.709Z,101382.63
2023-03-29T10:09:56.701Z,101388.81
2023-03-29T10:12:23.229Z,101369.47
2023-03-29T10:14:53.942Z,101382.75
2023-03-29T10:17:26.719Z,101382.78
2023-03-29T10:20:03.975Z,101380.22
2023-03-29T10:22:41.121Z,101378.50
2023-03-29T10:25:17.120Z,101380.31
2023-03-29T10:27:46.781Z,101374.19
2023-03-29T10:30:25.350Z,101379.44
2023-03-29T10:33:00.331Z,101375.91
2023-03-29T10:35:34.597Z,101379.38
2023-03-29T10:38:07.545Z,101367.13
2023-03-29T10:40:40.191Z,101363.63
2023-03-29T10:43:21.810Z,101352.28
2023-03-29T10:45:54.196Z,101352.34
2023-03-29T10:48:27.776Z,101351.50
2023-03-29T10:50:58.491Z,101356.81
2023-03-29T10:53:29.261Z,101349.81
2023-03-29T10:56:01.697Z,101347.16
2023-03-29T10:58:42.337Z,101331.28
2023-03-29T11:01:22.236Z,101333.97
2023-03-29T11:04:07.860Z,101328.75
2023-03-29T11:06:46.086Z,101332.34
2023-03-29T11:09:49.805Z,101336.78
2023-03-29T11:12:21.566Z,101328.91
2023-03-29T11:15:19.069Z,101328.06
2023-03-29T11:18:23.245Z,101318.41
2023-03-29T11:21:16.832Z,101328.06
2023-03-29T11:23:59.647Z,101321.03
2023-03-29T11:26:39.950Z,101329.81
2023-03-29T11:29:23.631Z,101338.59
2023-03-29T11:31:59.295Z,101325.38
2023-03-29T11:34:37.699Z,101330.66
2023-03-29T11:37:20.414Z,101329.75
2023-03-29T11:40:15.976Z,101340.31
2023-03-29T11:42:48.288Z,101334.13
2023-03-29T11:45:23.395Z,101337.63
2023-03-29T11:47:51.507Z,101331.47
2023-03-29T11:50:44.847Z,101343.81
2023-03-29T11:53:17.064Z,101341.19
2023-03-29T11:55:44.637Z,101355.25
2023-03-29T11:58:22.427Z,101355.22
2023-03-29T12:01:01.780Z,101358.78
2023-03-29T12:03:40.397Z,101351.72
2023-03-29T12:06:31.967Z,101342.03
2023-03-29T12:09:04.583Z,101330.59
2023-03-29T12:11:38.551Z,101335.91
2023-03-29T12:14:14.143Z,101329.75
2023-03-29T12:17:22.978Z,101323.59
2023-03-29T12:20:15.110Z,101326.22
2023-03-29T12:22:41.665Z,101320.88
2023-03-29T12:25:18.218Z,101335.84
2023-03-29T12:27:56.246Z,101332.31
2023-03-29T12:30:46.424Z,101331.38
2023-03-29T12:33:28.238Z,101324.28
2023-03-29T12:36:09.847Z,101322.50
2023-03-29T12:38:37.668Z,101321.66
2023-03-29T12:41:16.637Z,101326.00
2023-03-29T12:43:43.559Z,101322.44
2023-03-29T12:46:19.434Z,101318.91
2023-03-29T12:48:49.331Z,101305.72
2023-03-29T12:51:23.383Z,101289.03
2023-03-29T12:53:53.684Z,101286.41
2023-03-29T12:56:36.329Z,101278.50
2023-03-29T12:59:10.762Z,101267.97
2023-03-29T13:01:41.491Z,101271.47
2023-03-29T13:04:17.543Z,101263.56
2023-03-29T13:06:46.817Z,101273.25
2023-03-29T13:10:06.035Z,101246.00
2023-03-29T13:12:35.798Z,101260.06
2023-03-29T13:15:07.818Z,101254.81
2023-03-29T13:17:42.860Z,101252.16
2023-03-29T13:20:29.001Z,101239.88
2023-03-29T13:23:21.633Z,101239.00
2023-03-29T13:26:07.640Z,101236.38
2023-03-29T13:28:57.934Z,101232.06
2023-03-29T13:31:33.538Z,101241.78
2023-03-29T13:34:31.030Z,101255.03
2023-03-29T13:37:10.566Z,101248.00
2023-03-29T13:39:47.317Z,101241.88
2023-03-29T13:42:19.374Z,101241.00
2023-03-29T13:44:48.957Z,101227.78
2023-03-29T13:47:41.810Z,101223.41
2023-03-29T13:50:18.542Z,101220.78
2023-03-29T13:52:58.722Z,101209.34
2023-03-29T13:55:32.273Z,101204.97
2023-03-29T13:58:10.211Z,101204.94
2023-03-29T14:00:47.045Z,101195.28
2023-03-29T14:03:18.476Z,101200.56
2023-03-29T14:05:50.626Z,101190.03
2023-03-29T14:08:25.418Z,101183.88
2023-03-29T14:10:53.444Z,101193.56
2023-03-29T14:13:23.367Z,101191.78
2023-03-29T14:16:11.658Z,101188.25
2023-03-29T14:18:41.239Z,101182.97
2023-03-29T14:21:08.571Z,101180.34
2023-03-29T14:23:37.409Z,101182.09
2023-03-29T14:26:16.670Z,101182.09
2023-03-29T14:28:56.504Z,101177.69
2023-03-29T14:31:30.541Z,101175.06
2023-03-29T14:33:59.276Z,101174.16
2023-03-29T14:36:27.192Z,101166.22
2023-03-29T14:39:18.337Z,101161.81
2023-03-29T14:41:51.676Z,101158.28
2023-03-29T14:44:21.703Z,101147.69
2023-03-29T14:46:48.309Z,101143.25
2023-03-29T14:49:20.654Z,101140.59
2023-03-29T14:51:48.215Z,101137.94
2023-03-29T14:54:33.324Z,101137.06
2023-03-29T14:57:03.705Z,101135.28
2023-03-29T14:59:37.393Z,101143.22
2023-03-29T15:02:21.751Z,101136.19
2023-03-29T15:05:04.960Z,101126.53
2023-03-29T15:07:36.988Z,101121.25
2023-03-29T15:10:06.389Z,101125.66
2023-03-29T15:12:34.112Z,101123.84
2023-03-29T15:15:01.457Z,101114.19
2023-03-29T15:17:51.216Z,101107.09
2023-03-29T15:20:27.105Z,101097.41
2023-03-29T15:22:58.663Z,101097.38
2023-03-29T15:25:37.633Z,101085.91
2023-03-29T15:28:04.901Z,101083.25
2023-03-29T15:30:34.769Z,101084.97
2023-03-29T15:33:16.561Z,101083.22
2023-03-29T15:35:47.409Z,101077.03
2023-03-29T15:38:14.204Z,101074.34
2023-03-29T15:40:41.163Z,101077.00
2023-03-29T15:43:07.867Z,101070.81
2023-03-29T15:45:34.679Z,101059.38
2023-03-29T15:48:04.787Z,101061.16
2023-03-29T15:50:32.478Z,101054.94
2023-03-29T15:53:05.409Z,101040.84
2023-03-29T15:55:44.963Z,101026.75
2023-03-29T15:58:16.904Z,101025.00
2023-03-29T16:00:48.456Z,101033.81
2023-03-29T16:03:15.985Z,101017.94
2023-03-29T16:05:45.421Z,101007.34
2023-03-29T16:08:13.166Z,101010.84
2023-03-29T16:10:41.224Z,100998.53
2023-03-29T16:13:10.039Z,101000.31
2023-03-29T16:15:37.183Z,101002.09
2023-03-29T16:18:05.232Z,100997.66
2023-03-29T16:20:32.186Z,100985.34
2023-03-29T16:22:58.678Z,100980.06
2023-03-29T16:25:25.341Z,100977.44
2023-03-29T16:28:01.574Z,100977.44
2023-03-29T16:30:28.625Z,100965.09
2023-03-29T16:32:55.201Z,100954.50
2023-03-29T16:35:26.361Z,100954.50
2023-03-29T16:37:52.733Z,100943.03
2023-03-29T16:40:20.980Z,100948.31
2023-03-29T16:42:47.870Z,100950.94
2023-03-29T16:45:14.929Z,100958.03
2023-03-29T16:47:44.894Z,100950.94
2023-03-29T16:50:12.958Z,100951.81
2023-03-29T16:52:40.022Z,100951.81
2023-03-29T16:55:07.872Z,100947.44
2023-03-29T16:57:34.438Z,100943.94
2023-03-29T17:00:01.178Z,100948.38
2023-03-29T17:02:27.775Z,100949.25
2023-03-29T17:04:54.354Z,100945.72
2023-03-29T17:07:20.797Z,100935.16
2023-03-29T17:09:47.424Z,100935.16
2023-03-29T17:12:14.241Z,100935.19
2023-03-29T17:14:41.899Z,100928.16
2023-03-29T17:17:08.330Z,100934.28
2023-03-29T17:19:34.868Z,100935.19
2023-03-29T17:22:01.324Z,100914.03
2023-03-29T17:24:30.859Z,100920.19
2023-03-29T17:26:58.955Z,100913.13
2023-03-29T17:29:25.376Z,100905.22
2023-03-29T17:31:51.821Z,100910.47
2023-03-29T17:34:19.343Z,100905.22
2023-03-29T17:36:46.200Z,100904.31
2023-03-29T17:39:15.270Z,100899.91
2023-03-29T17:41:42.508Z,100903.41
2023-03-29T17:44:08.973Z,100887.53
2023-03-29T17:46:35.463Z,100890.19
2023-03-29T17:49:04.074Z,100879.63
2023-03-29T17:51:30.965Z,100891.09
2023-03-29T17:53:58.460Z,100886.72
2023-03-29T17:56:26.807Z,100884.06
2023-03-29T17:58:53.827Z,100879.66
2023-03-29T18:01:28.154Z,100881.47
2023-03-29T18:03:54.872Z,100880.59
2023-03-29T18:06:21.403Z,100885.91
2023-03-29T18:08:48.234Z,100879.75
2023-03-29T18:11:22.774Z,100880.63
2023-03-29T18:13:51.273Z,100870.13
2023-03-29T18:16:18.598Z,100861.31
2023-03-29T18:18:46.368Z,100849.91
2023-03-29T18:21:14.808Z,100847.28
2023-03-29T18:23:45.089Z,100856.97
2023-03-29T18:26:12.231Z,100851.75
2023-03-29T18:28:38.948Z,100844.72
2023-03-29T18:31:06.027Z,100842.94
2023-03-29T18:33:35.229Z,100849.09
2023-03-29T18:36:09.848Z,100850.00
2023-03-29T18:41:08.533Z,100859.75
2023-03-29T18:43:35.984Z,100859.78
2023-03-29T18:46:03.255Z,100853.63
2023-03-29T18:48:30.269Z,100847.44
2023-03-29T18:50:57.822Z,100850.09
2023-03-29T18:53:24.602Z,100844.81
2023-03-29T18:55:55.383Z,100841.31
2023-03-29T18:58:23.964Z,100842.19
2023-03-29T19:00:51.382Z,100846.63
2023-03-29T19:03:18.311Z,100844.88
2023-03-29T19:05:44.861Z,100852.81
2023-03-29T19:08:11.324Z,100837.88
2023-03-29T19:10:39.273Z,100837.84
2023-03-29T19:13:06.216Z,100836.97
2023-03-29T19:15:34.688Z,100830.84
2023-03-29T19:18:01.491Z,100832.59
2023-03-29T19:20:28.375Z,100830.84
2023-03-29T19:22:54.825Z,100825.56
2023-03-29T19:25:21.455Z,100825.56
2023-03-29T19:27:47.890Z,100814.97
2023-03-29T19:30:14.866Z,100807.09
2023-03-29T19:32:41.283Z,100807.09
2023-03-29T19:35:09.546Z,100793.88
2023-03-29T19:37:36.109Z,100785.13
2023-03-29T19:40:03.726Z,100792.13
2023-03-29T19:42:30.343Z,100781.59
2023-03-29T19:44:56.838Z,100773.69
2023-03-29T19:47:24.478Z,100774.53
2023-03-29T19:49:51.406Z,100768.41
2023-03-29T19:52:17.842Z,100768.41
2023-03-29T19:54:47.286Z,100764.00
2023-03-29T19:57:13.780Z,100755.22
2023-03-29T19:59:43.020Z,100748.16
2023-03-29T20:02:11.330Z,100745.56
2023-03-29T20:04:37.926Z,100734.09
2023-03-29T20:07:04.685Z,100736.72
2023-03-29T20:09:32.755Z,100732.31
2023-03-29T20:12:00.167Z,100734.09
2023-03-29T20:14:28.273Z,100726.16
2023-03-29T20:16:55.178Z,100726.16
2023-03-29T20:19:25.317Z,100722.66
2023-03-29T20:21:58.718Z,100722.66
2023-03-29T20:24:25.352Z,100722.69
2023-03-29T20:26:52.685Z,100718.28
2023-03-29T20:29:19.142Z,100714.78
2023-03-29T20:31:46.425Z,100699.75
2023-03-29T20:34:13.050Z,100694.50
2023-03-29T20:36:40.565Z,100680.41
2023-03-29T20:39:19.613Z,100665.44
2023-03-29T20:41:47.668Z,100669.81
2023-03-29T20:44:16.705Z,100664.53
2023-03-29T20:46:54.059Z,100654.84
2023-03-29T20:49:26.681Z,100651.34
2023-03-29T20:52:03.260Z,100642.56
2023-03-29T20:54:29.716Z,100638.13
2023-03-29T20:56:56.464Z,100634.59
2023-03-29T20:59:22.950Z,100626.72
2023-03-29T21:01:50.329Z,100629.31
2023-03-29T21:04:17.677Z,100625.84
2023-03-29T21:06:45.682Z,100614.38
2023-03-29T21:09:13.245Z,100616.16
2023-03-29T21:11:39.818Z,100614.38
2023-03-29T21:14:06.241Z,100607.34
2023-03-29T21:16:32.703Z,100617.06
2023-03-29T21:18:59.135Z,100617.06
2023-03-29T21:21:25.630Z,100614.41
2023-03-29T21:23:52.152Z,100611.81
2023-03-29T21:26:18.626Z,100600.38
2023-03-29T21:28:45.317Z,100596.00
2023-03-29T21:31:11.766Z,100587.25
2023-03-29T21:33:38.279Z,100584.59
2023-03-29T21:36:05.609Z,100573.19
2023-03-29T21:38:32.259Z,100574.06
2023-03-29T21:41:00.256Z,100567.06
2023-03-29T21:43:26.893Z,100569.69
2023-03-29T21:45:53.367Z,100570.59
2023-03-29T21:48:19.798Z,100574.09
2023-03-29T21:50:49.860Z,100559.16
2023-03-29T21:53:16.674Z,100564.41
2023-03-29T21:55:43.083Z,100564.41
2023-03-29T21:58:09.661Z,100563.50
2023-03-29T22:00:36.088Z,100553.84
2023-03-29T22:03:02.540Z,100536.25
2023-03-29T22:05:28.987Z,100545.00
2023-03-29T22:07:58.532Z,100555.56
2023-03-29T22:10:25.246Z,100545.91
2023-03-29T22:13:00.973Z,100552.03
2023-03-29T22:15:29.362Z,100557.31
2023-03-29T22:17:59.753Z,100553.75
2023-03-29T22:20:27.432Z,100552.88
2023-03-29T22:22:53.907Z,100559.03
2023-03-29T22:25:20.817Z,100557.25
2023-03-29T22:27:48.736Z,100552.84
2023-03-29T22:30:16.260Z,100556.34
2023-03-29T22:32:42.904Z,100554.59
2023-03-29T22:35:10.002Z,100546.63
2023-03-29T22:37:44.121Z,100536.94
2023-03-29T22:40:12.114Z,100548.38
2023-03-29T22:42:38.849Z,100541.34
2023-03-29T22:45:06.524Z,100534.31
2023-03-29T22:47:33.116Z,100539.53
2023-03-29T22:49:59.477Z,100530.72
2023-03-29T22:52:26.042Z,100532.44
2023-03-29T22:54:52.557Z,100528.94
2023-03-29T22:57:18.967Z,100523.66
2023-03-29T22:59:45.405Z,100525.38
2023-03-29T23:02:11.865Z,100519.19
2023-03-29T23:04:38.812Z,100506.88
2023-03-29T23:07:07.614Z,100509.47
2023-03-29T23:09:34.033Z,100511.25
2023-03-29T23:12:01.161Z,100503.31
2023-03-29T23:14:27.817Z,100504.19
2023-03-29T23:16:54.342Z,100499.78
2023-03-29T23:19:20.763Z,100494.44
2023-03-29T23:21:47.141Z,100497.09
2023-03-29T23:24:13.532Z,100486.47
2023-03-29T23:26:39.980Z,100476.88
2023-03-29T23:29:06.389Z,100486.44
2023-03-29T23:31:33.835Z,100490.81
2023-03-29T23:34:00.288Z,100491.66
2023-03-29T23:36:31.087Z,100486.38
2023-03-29T23:38:59.436Z,100487.22
2023-03-29T23:41:30.421Z,100485.44
2023-03-29T23:43:57.662Z,100481.91
2023-03-29T23:46:31.370Z,100481.88
2023-03-29T23:48:58.338Z,100472.16
2023-03-29T23:51:28.789Z,100480.97
2023-03-29T23:53:56.312Z,100478.31
2023-03-29T23:56:22.866Z,100480.06
2023-03-29T23:58:49.402Z,100473.00
